sensor_id;sensor_type;location;lat;lon;timestamp;temperature;humidity
67862;DHT22;54665;51.462;6.698;2022-10-15T00:02:07;12.89;98.74
67862;DHT22;54665;51.462;6.698;2022-10-15T00:04:33;12.88;98.76
67862;DHT22;54665;51.462;6.698;2022-10-15T00:06:58;12.85;98.78
67862;DHT22;54665;51.462;6.698;2022-10-15T00:09:24;12.83;98.76
67862;DHT22;54665;51.462;6.698;2022-10-15T00:11:49;12.76;98.76
67862;DHT22;54665;51.462;6.698;2022-10-15T00:14:15;12.71;98.77
67862;DHT22;54665;51.462;6.698;2022-10-15T00:16:41;12.62;98.78
67862;DHT22;54665;51.462;6.698;2022-10-15T00:19:07;12.53;98.78
67862;DHT22;54665;51.462;6.698;2022-10-15T00:21:33;12.52;98.80
67862;DHT22;54665;51.462;6.698;2022-10-15T00:23:58;12.53;98.82
67862;DHT22;54665;51.462;6.698;2022-10-15T00:26:25;12.52;98.83
67862;DHT22;54665;51.462;6.698;2022-10-15T00:28:54;12.58;98.84
67862;DHT22;54665;51.462;6.698;2022-10-15T00:31:21;12.59;98.88
67862;DHT22;54665;51.462;6.698;2022-10-15T00:33:52;12.56;98.86
67862;DHT22;54665;51.462;6.698;2022-10-15T00:36:27;12.55;98.88
67862;DHT22;54665;51.462;6.698;2022-10-15T00:38:53;12.55;98.86
67862;DHT22;54665;51.462;6.698;2022-10-15T00:41:22;12.55;98.92
67862;DHT22;54665;51.462;6.698;2022-10-15T00:43:53;12.56;98.91
67862;DHT22;54665;51.462;6.698;2022-10-15T00:46:39;12.61;98.93
67862;DHT22;54665;51.462;6.698;2022-10-15T00:49:25;12.51;98.92
67862;DHT22;54665;51.462;6.698;2022-10-15T00:51:54;12.41;98.93
67862;DHT22;54665;51.462;6.698;2022-10-15T00:54:21;12.25;98.89
67862;DHT22;54665;51.462;6.698;2022-10-15T00:56:48;12.16;98.94
67862;DHT22;54665;51.462;6.698;2022-10-15T00:59:15;12.04;98.93
67862;DHT22;54665;51.462;6.698;2022-10-15T01:01:42;11.98;98.95
67862;DHT22;54665;51.462;6.698;2022-10-15T01:04:09;11.90;98.95
67862;DHT22;54665;51.462;6.698;2022-10-15T01:06:35;11.91;98.99
67862;DHT22;54665;51.462;6.698;2022-10-15T01:09:02;11.83;99.00
67862;DHT22;54665;51.462;6.698;2022-10-15T01:11:47;11.80;98.98
67862;DHT22;54665;51.462;6.698;2022-10-15T01:15:08;11.69;99.05
67862;DHT22;54665;51.462;6.698;2022-10-15T01:20:19;11.57;99.04
67862;DHT22;54665;51.462;6.698;2022-10-15T01:28:41;11.38;99.10
67862;DHT22;54665;51.462;6.698;2022-10-15T01:31:25;11.39;99.13
67862;DHT22;54665;51.462;6.698;2022-10-15T01:33:57;11.40;99.11
67862;DHT22;54665;51.462;6.698;2022-10-15T01:36:38;11.49;99.15
67862;DHT22;54665;51.462;6.698;2022-10-15T01:39:13;11.70;99.16
67862;DHT22;54665;51.462;6.698;2022-10-15T01:41:43;11.77;99.16
67862;DHT22;54665;51.462;6.698;2022-10-15T01:44:17;11.89;99.15
67862;DHT22;54665;51.462;6.698;2022-10-15T01:47:03;11.95;99.15
67862;DHT22;54665;51.462;6.698;2022-10-15T01:49:31;12.04;99.14
67862;DHT22;54665;51.462;6.698;2022-10-15T01:52:05;12.08;99.20
67862;DHT22;54665;51.462;6.698;2022-10-15T01:54:33;12.16;99.13
67862;DHT22;54665;51.462;6.698;2022-10-15T01:56:59;12.18;99.13
67862;DHT22;54665;51.462;6.698;2022-10-15T01:59:29;12.27;99.16
67862;DHT22;54665;51.462;6.698;2022-10-15T02:01:55;12.32;99.12
67862;DHT22;54665;51.462;6.698;2022-10-15T02:04:27;12.34;99.11
67862;DHT22;54665;51.462;6.698;2022-10-15T02:07:04;12.38;99.08
67862;DHT22;54665;51.462;6.698;2022-10-15T02:09:41;12.35;99.10
67862;DHT22;54665;51.462;6.698;2022-10-15T02:15:22;12.32;99.07
67862;DHT22;54665;51.462;6.698;2022-10-15T02:18:40;12.31;99.07
67862;DHT22;54665;51.462;6.698;2022-10-15T02:20:58;12.34;99.08
67862;DHT22;54665;51.462;6.698;2022-10-15T02:23:26;12.38;99.03
67862;DHT22;54665;51.462;6.698;2022-10-15T02:25:58;12.37;99.04
67862;DHT22;54665;51.462;6.698;2022-10-15T02:28:24;12.38;99.04
67862;DHT22;54665;51.462;6.698;2022-10-15T02:30:51;12.37;99.02
67862;DHT22;54665;51.462;6.698;2022-10-15T02:33:18;12.38;99.00
67862;DHT22;54665;51.462;6.698;2022-10-15T02:35:46;12.38;98.97
67862;DHT22;54665;51.462;6.698;2022-10-15T02:38:15;12.38;98.98
67862;DHT22;54665;51.462;6.698;2022-10-15T02:40:43;12.39;98.96
67862;DHT22;54665;51.462;6.698;2022-10-15T02:43:11;12.38;98.98
67862;DHT22;54665;51.462;6.698;2022-10-15T02:45:38;12.41;98.98
67862;DHT22;54665;51.462;6.698;2022-10-15T02:48:04;12.44;98.97
67862;DHT22;54665;51.462;6.698;2022-10-15T02:50:29;12.44;99.00
67862;DHT22;54665;51.462;6.698;2022-10-15T02:52:55;12.45;98.94
67862;DHT22;54665;51.462;6.698;2022-10-15T02:55:20;12.48;99.00
67862;DHT22;54665;51.462;6.698;2022-10-15T02:57:46;12.51;98.96
67862;DHT22;54665;51.462;6.698;2022-10-15T03:00:11;12.53;98.98
67862;DHT22;54665;51.462;6.698;2022-10-15T03:02:39;12.53;98.99
67862;DHT22;54665;51.462;6.698;2022-10-15T03:05:05;12.58;98.98
67862;DHT22;54665;51.462;6.698;2022-10-15T03:07:30;12.56;98.99
67862;DHT22;54665;51.462;6.698;2022-10-15T03:09:55;12.61;98.99
67862;DHT22;54665;51.462;6.698;2022-10-15T03:12:22;12.62;98.98
67862;DHT22;54665;51.462;6.698;2022-10-15T03:14:51;12.61;98.97
67862;DHT22;54665;51.462;6.698;2022-10-15T03:17:17;12.63;98.93
67862;DHT22;54665;51.462;6.698;2022-10-15T03:19:42;12.63;98.96
67862;DHT22;54665;51.462;6.698;2022-10-15T03:22:09;12.63;98.90
67862;DHT22;54665;51.462;6.698;2022-10-15T03:24:44;12.62;98.90
67862;DHT22;54665;51.462;6.698;2022-10-15T03:27:10;12.59;98.90
67862;DHT22;54665;51.462;6.698;2022-10-15T03:29:36;12.56;98.91
67862;DHT22;54665;51.462;6.698;2022-10-15T03:32:02;12.52;98.87
67862;DHT22;54665;51.462;6.698;2022-10-15T03:34:27;12.52;98.86
67862;DHT22;54665;51.462;6.698;2022-10-15T03:36:53;12.49;98.89
67862;DHT22;54665;51.462;6.698;2022-10-15T03:39:18;12.49;98.84
67862;DHT22;54665;51.462;6.698;2022-10-15T03:41:45;12.45;98.91
67862;DHT22;54665;51.462;6.698;2022-10-15T03:44:16;12.41;98.81
67862;DHT22;54665;51.462;6.698;2022-10-15T03:46:45;12.35;98.88
67862;DHT22;54665;51.462;6.698;2022-10-15T03:49:11;12.35;98.86
67862;DHT22;54665;51.462;6.698;2022-10-15T03:51:37;12.37;98.86
67862;DHT22;54665;51.462;6.698;2022-10-15T03:54:08;12.39;98.87
67862;DHT22;54665;51.462;6.698;2022-10-15T03:56:41;12.39;98.90
67862;DHT22;54665;51.462;6.698;2022-10-15T03:59:25;12.39;98.89
67862;DHT22;54665;51.462;6.698;2022-10-15T04:01:57;12.42;98.90
67862;DHT22;54665;51.462;6.698;2022-10-15T04:04:22;12.49;98.90
67862;DHT22;54665;51.462;6.698;2022-10-15T04:06:48;12.48;98.88
67862;DHT22;54665;51.462;6.698;2022-10-15T04:09:15;12.49;98.88
67862;DHT22;54665;51.462;6.698;2022-10-15T04:11:40;12.49;98.93
67862;DHT22;54665;51.462;6.698;2022-10-15T04:14:06;12.49;98.90
67862;DHT22;54665;51.462;6.698;2022-10-15T04:16:32;12.53;98.91
67862;DHT22;54665;51.462;6.698;2022-10-15T04:19:01;12.53;98.89
67862;DHT22;54665;51.462;6.698;2022-10-15T04:21:26;12.55;98.87
67862;DHT22;54665;51.462;6.698;2022-10-15T04:23:58;12.55;98.91
67862;DHT22;54665;51.462;6.698;2022-10-15T04:26:29;12.58;98.86
67862;DHT22;54665;51.462;6.698;2022-10-15T04:28:58;12.56;98.89
67862;DHT22;54665;51.462;6.698;2022-10-15T04:31:24;12.56;98.88
67862;DHT22;54665;51.462;6.698;2022-10-15T04:33:50;12.56;98.88
67862;DHT22;54665;51.462;6.698;2022-10-15T04:36:16;12.58;98.92
67862;DHT22;54665;51.462;6.698;2022-10-15T04:38:52;12.58;98.89
67862;DHT22;54665;51.462;6.698;2022-10-15T04:41:27;12.61;98.88
67862;DHT22;54665;51.462;6.698;2022-10-15T04:44:01;12.62;98.90
67862;DHT22;54665;51.462;6.698;2022-10-15T04:46:29;12.61;98.86
67862;DHT22;54665;51.462;6.698;2022-10-15T04:48:58;12.59;98.89
67862;DHT22;54665;51.462;6.698;2022-10-15T04:51:25;12.59;98.87
67862;DHT22;54665;51.462;6.698;2022-10-15T04:54:00;12.62;98.92
67862;DHT22;54665;51.462;6.698;2022-10-15T04:56:27;12.59;98.86
67862;DHT22;54665;51.462;6.698;2022-10-15T04:58:54;12.62;98.91
67862;DHT22;54665;51.462;6.698;2022-10-15T05:01:20;12.63;98.88
67862;DHT22;54665;51.462;6.698;2022-10-15T05:03:54;12.62;98.87
67862;DHT22;54665;51.462;6.698;2022-10-15T05:06:21;12.63;98.92
67862;DHT22;54665;51.462;6.698;2022-10-15T05:08:48;12.66;98.90
67862;DHT22;54665;51.462;6.698;2022-10-15T05:11:22;12.66;98.89
67862;DHT22;54665;51.462;6.698;2022-10-15T05:13:49;12.63;98.88
67862;DHT22;54665;51.462;6.698;2022-10-15T05:16:27;12.58;98.90
67862;DHT22;54665;51.462;6.698;2022-10-15T05:19:02;12.55;98.86
67862;DHT22;54665;51.462;6.698;2022-10-15T05:21:30;12.51;98.82
67862;DHT22;54665;51.462;6.698;2022-10-15T05:23:59;12.42;98.90
67862;DHT22;54665;51.462;6.698;2022-10-15T05:26:46;12.41;98.86
67862;DHT22;54665;51.462;6.698;2022-10-15T05:29:13;12.31;98.88
67862;DHT22;54665;51.462;6.698;2022-10-15T05:31:38;12.24;98.89
67862;DHT22;54665;51.462;6.698;2022-10-15T05:34:12;12.18;98.88
67862;DHT22;54665;51.462;6.698;2022-10-15T05:36:55;12.07;98.89
67862;DHT22;54665;51.462;6.698;2022-10-15T05:39:20;11.95;98.88
67862;DHT22;54665;51.462;6.698;2022-10-15T05:41:46;11.87;98.94
67862;DHT22;54665;51.462;6.698;2022-10-15T05:44:12;11.93;98.97
67862;DHT22;54665;51.462;6.698;2022-10-15T05:46:38;12.02;98.97
67862;DHT22;54665;51.462;6.698;2022-10-15T05:49:03;12.05;99.01
67862;DHT22;54665;51.462;6.698;2022-10-15T05:51:39;12.13;99.05
67862;DHT22;54665;51.462;6.698;2022-10-15T05:54:09;12.20;98.99
67862;DHT22;54665;51.462;6.698;2022-10-15T05:56:36;12.28;99.04
67862;DHT22;54665;51.462;6.698;2022-10-15T05:59:02;12.44;99.08
67862;DHT22;54665;51.462;6.698;2022-10-15T06:01:28;12.49;99.07
67862;DHT22;54665;51.462;6.698;2022-10-15T06:03:54;12.46;99.05
67862;DHT22;54665;51.462;6.698;2022-10-15T06:06:21;12.46;98.99
67862;DHT22;54665;51.462;6.698;2022-10-15T06:08:47;12.37;99.08
67862;DHT22;54665;51.462;6.698;2022-10-15T06:11:13;12.20;99.04
67862;DHT22;54665;51.462;6.698;2022-10-15T06:13:39;12.10;99.02
67862;DHT22;54665;51.462;6.698;2022-10-15T06:16:05;12.00;99.00
67862;DHT22;54665;51.462;6.698;2022-10-15T06:18:31;11.90;99.02
67862;DHT22;54665;51.462;6.698;2022-10-15T06:20:56;11.87;99.03
67862;DHT22;54665;51.462;6.698;2022-10-15T06:23:22;11.94;99.05
67862;DHT22;54665;51.462;6.698;2022-10-15T06:25:49;12.01;99.09
67862;DHT22;54665;51.462;6.698;2022-10-15T06:28:14;12.04;99.12
67862;DHT22;54665;51.462;6.698;2022-10-15T06:30:41;12.07;99.09
67862;DHT22;54665;51.462;6.698;2022-10-15T06:33:06;12.08;99.10
67862;DHT22;54665;51.462;6.698;2022-10-15T06:35:31;12.11;99.11
67862;DHT22;54665;51.462;6.698;2022-10-15T06:38:04;12.30;99.10
67862;DHT22;54665;51.462;6.698;2022-10-15T06:40:30;12.41;99.05
67862;DHT22;54665;51.462;6.698;2022-10-15T06:43:03;12.52;99.06
67862;DHT22;54665;51.462;6.698;2022-10-15T06:45:29;12.63;99.06
67862;DHT22;54665;51.462;6.698;2022-10-15T06:47:55;12.69;99.07
67862;DHT22;54665;51.462;6.698;2022-10-15T06:50:20;12.76;99.04
67862;DHT22;54665;51.462;6.698;2022-10-15T06:52:45;12.76;99.00
67862;DHT22;54665;51.462;6.698;2022-10-15T06:55:11;12.80;98.97
67862;DHT22;54665;51.462;6.698;2022-10-15T06:57:36;12.80;98.93
67862;DHT22;54665;51.462;6.698;2022-10-15T07:00:02;12.80;98.89
67862;DHT22;54665;51.462;6.698;2022-10-15T07:02:27;12.89;98.85
67862;DHT22;54665;51.462;6.698;2022-10-15T07:04:53;13.02;98.82
67862;DHT22;54665;51.462;6.698;2022-10-15T07:07:21;13.14;98.75
67862;DHT22;54665;51.462;6.698;2022-10-15T07:09:46;13.20;98.72
67862;DHT22;54665;51.462;6.698;2022-10-15T07:12:12;13.26;98.60
67862;DHT22;54665;51.462;6.698;2022-10-15T07:14:38;13.13;98.52
67862;DHT22;54665;51.462;6.698;2022-10-15T07:17:04;13.02;98.50
67862;DHT22;54665;51.462;6.698;2022-10-15T07:19:29;13.00;98.44
67862;DHT22;54665;51.462;6.698;2022-10-15T07:21:54;13.04;98.41
67862;DHT22;54665;51.462;6.698;2022-10-15T07:24:20;13.13;98.36
67862;DHT22;54665;51.462;6.698;2022-10-15T07:26:48;13.16;98.37
67862;DHT22;54665;51.462;6.698;2022-10-15T07:29:13;13.24;98.35
67862;DHT22;54665;51.462;6.698;2022-10-15T07:31:39;13.33;98.35
67862;DHT22;54665;51.462;6.698;2022-10-15T07:34:05;13.46;98.26
67862;DHT22;54665;51.462;6.698;2022-10-15T07:36:30;13.54;98.19
67862;DHT22;54665;51.462;6.698;2022-10-15T07:38:55;13.86;98.07
67862;DHT22;54665;51.462;6.698;2022-10-15T07:41:21;14.11;97.69
67862;DHT22;54665;51.462;6.698;2022-10-15T07:43:46;14.30;97.58
67862;DHT22;54665;51.462;6.698;2022-10-15T07:46:11;14.42;97.16
67862;DHT22;54665;51.462;6.698;2022-10-15T07:48:37;14.80;96.92
67862;DHT22;54665;51.462;6.698;2022-10-15T07:51:04;15.04;96.36
67862;DHT22;54665;51.462;6.698;2022-10-15T07:53:30;15.27;95.44
67862;DHT22;54665;51.462;6.698;2022-10-15T07:56:06;15.39;94.83
67862;DHT22;54665;51.462;6.698;2022-10-15T07:58:35;15.08;93.85
67862;DHT22;54665;51.462;6.698;2022-10-15T08:01:07;14.80;94.15
67862;DHT22;54665;51.462;6.698;2022-10-15T08:03:33;14.69;94.60
67862;DHT22;54665;51.462;6.698;2022-10-15T08:05:59;14.46;94.53
67862;DHT22;54665;51.462;6.698;2022-10-15T08:08:26;14.64;94.66
67862;DHT22;54665;51.462;6.698;2022-10-15T08:10:52;15.03;94.52
67862;DHT22;54665;51.462;6.698;2022-10-15T08:13:17;15.03;93.95
67862;DHT22;54665;51.462;6.698;2022-10-15T08:15:45;15.42;93.35
67862;DHT22;54665;51.462;6.698;2022-10-15T08:18:11;15.99;91.53
67862;DHT22;54665;51.462;6.698;2022-10-15T08:20:37;16.12;90.40
67862;DHT22;54665;51.462;6.698;2022-10-15T08:23:04;16.48;90.18
67862;DHT22;54665;51.462;6.698;2022-10-15T08:25:29;16.36;88.40
67862;DHT22;54665;51.462;6.698;2022-10-15T08:27:57;16.30;89.68
67862;DHT22;54665;51.462;6.698;2022-10-15T08:30:23;16.36;88.68
67862;DHT22;54665;51.462;6.698;2022-10-15T08:32:49;16.33;88.92
67862;DHT22;54665;51.462;6.698;2022-10-15T08:35:14;16.37;90.63
67862;DHT22;54665;51.462;6.698;2022-10-15T08:37:39;16.21;90.06
67862;DHT22;54665;51.462;6.698;2022-10-15T08:40:05;16.03;90.31
67862;DHT22;54665;51.462;6.698;2022-10-15T08:42:40;15.99;91.23
67862;DHT22;54665;51.462;6.698;2022-10-15T08:45:37;15.93;91.27
67862;DHT22;54665;51.462;6.698;2022-10-15T08:48:08;15.90;90.32
67862;DHT22;54665;51.462;6.698;2022-10-15T08:50:58;16.02;90.81
67862;DHT22;54665;51.462;6.698;2022-10-15T08:53:27;16.16;90.96
67862;DHT22;54665;51.462;6.698;2022-10-15T08:55:57;16.28;90.54
67862;DHT22;54665;51.462;6.698;2022-10-15T09:04:20;17.09;86.67
67862;DHT22;54665;51.462;6.698;2022-10-15T09:06:54;16.91;86.75
67862;DHT22;54665;51.462;6.698;2022-10-15T09:09:38;16.95;85.96
67862;DHT22;54665;51.462;6.698;2022-10-15T09:14:47;16.82;87.11
67862;DHT22;54665;51.462;6.698;2022-10-15T09:17:24;16.47;86.40
67862;DHT22;54665;51.462;6.698;2022-10-15T09:19:53;16.36;86.34
67862;DHT22;54665;51.462;6.698;2022-10-15T09:22:25;16.40;87.25
67862;DHT22;54665;51.462;6.698;2022-10-15T09:24:52;16.63;86.77
67862;DHT22;54665;51.462;6.698;2022-10-15T09:27:35;16.94;86.49
67862;DHT22;54665;51.462;6.698;2022-10-15T09:35:29;16.69;85.65
67862;DHT22;54665;51.462;6.698;2022-10-15T09:38:05;16.81;85.30
67862;DHT22;54665;51.462;6.698;2022-10-15T09:41:02;16.87;85.26
67862;DHT22;54665;51.462;6.698;2022-10-15T09:43:35;16.75;84.93
67862;DHT22;54665;51.462;6.698;2022-10-15T09:46:03;16.71;85.51
67862;DHT22;54665;51.462;6.698;2022-10-15T09:48:35;16.69;85.72
67862;DHT22;54665;51.462;6.698;2022-10-15T09:51:15;16.53;84.95
67862;DHT22;54665;51.462;6.698;2022-10-15T09:54:02;16.51;85.40
67862;DHT22;54665;51.462;6.698;2022-10-15T09:56:36;16.61;85.17
67862;DHT22;54665;51.462;6.698;2022-10-15T09:59:02;16.78;85.46
67862;DHT22;54665;51.462;6.698;2022-10-15T10:01:30;17.02;86.11
67862;DHT22;54665;51.462;6.698;2022-10-15T10:04:16;17.02;86.10
67862;DHT22;54665;51.462;6.698;2022-10-15T10:06:45;16.92;86.33
67862;DHT22;54665;51.462;6.698;2022-10-15T10:09:18;16.65;85.96
67862;DHT22;54665;51.462;6.698;2022-10-15T10:11:47;16.60;86.69
67862;DHT22;54665;51.462;6.698;2022-10-15T10:14:22;16.60;86.47
67862;DHT22;54665;51.462;6.698;2022-10-15T10:17:09;16.64;85.91
67862;DHT22;54665;51.462;6.698;2022-10-15T10:19:37;16.75;86.29
67862;DHT22;54665;51.462;6.698;2022-10-15T10:22:15;17.02;85.62
67862;DHT22;54665;51.462;6.698;2022-10-15T10:24:41;17.22;85.93
67862;DHT22;54665;51.462;6.698;2022-10-15T10:29:48;17.11;84.63
67862;DHT22;54665;51.462;6.698;2022-10-15T10:32:20;17.01;85.19
67862;DHT22;54665;51.462;6.698;2022-10-15T10:34:46;16.91;87.06
67862;DHT22;54665;51.462;6.698;2022-10-15T10:37:12;16.94;87.44
67862;DHT22;54665;51.462;6.698;2022-10-15T10:39:37;16.92;88.02
67862;DHT22;54665;51.462;6.698;2022-10-15T10:42:05;16.84;89.28
67862;DHT22;54665;51.462;6.698;2022-10-15T10:44:35;16.65;89.59
67862;DHT22;54665;51.462;6.698;2022-10-15T10:49:34;16.46;90.75
67862;DHT22;54665;51.462;6.698;2022-10-15T10:51:59;16.41;91.09
67862;DHT22;54665;51.462;6.698;2022-10-15T10:54:26;16.47;91.09
67862;DHT22;54665;51.462;6.698;2022-10-15T10:56:53;16.47;91.16
67862;DHT22;54665;51.462;6.698;2022-10-15T10:59:31;16.46;91.14
67862;DHT22;54665;51.462;6.698;2022-10-15T11:01:59;16.46;90.96
67862;DHT22;54665;51.462;6.698;2022-10-15T11:04:27;16.60;91.07
67862;DHT22;54665;51.462;6.698;2022-10-15T11:07:05;16.57;91.26
67862;DHT22;54665;51.462;6.698;2022-10-15T11:12:41;16.85;91.34
67862;DHT22;54665;51.462;6.698;2022-10-15T11:18:14;17.04;90.43
67862;DHT22;54665;51.462;6.698;2022-10-15T11:23:29;17.23;89.82
67862;DHT22;54665;51.462;6.698;2022-10-15T11:26:25;17.30;89.96
67862;DHT22;54665;51.462;6.698;2022-10-15T11:29:10;17.32;89.17
67862;DHT22;54665;51.462;6.698;2022-10-15T11:31:52;17.45;89.02
67862;DHT22;54665;51.462;6.698;2022-10-15T11:42:23;17.11;89.93
67862;DHT22;54665;51.462;6.698;2022-10-15T11:45:04;17.84;89.01
67862;DHT22;54665;51.462;6.698;2022-10-15T11:48:01;17.94;86.12
67862;DHT22;54665;51.462;6.698;2022-10-15T11:55:49;17.39;88.07
67862;DHT22;54665;51.462;6.698;2022-10-15T11:58:26;17.43;88.65
67862;DHT22;54665;51.462;6.698;2022-10-15T12:00:56;17.53;89.05
67862;DHT22;54665;51.462;6.698;2022-10-15T12:03:27;17.51;89.76
67862;DHT22;54665;51.462;6.698;2022-10-15T12:05:59;17.49;89.48
67862;DHT22;54665;51.462;6.698;2022-10-15T12:08:32;17.70;89.97
67862;DHT22;54665;51.462;6.698;2022-10-15T12:14:17;18.04;87.99
67862;DHT22;54665;51.462;6.698;2022-10-15T12:17:19;18.38;88.19
67862;DHT22;54665;51.462;6.698;2022-10-15T12:19:51;18.44;87.62
67862;DHT22;54665;51.462;6.698;2022-10-15T12:24:57;17.88;87.03
67862;DHT22;54665;51.462;6.698;2022-10-15T12:27:30;17.93;87.78
67862;DHT22;54665;51.462;6.698;2022-10-15T12:32:39;18.28;87.11
67862;DHT22;54665;51.462;6.698;2022-10-15T12:35:19;18.27;87.18
67862;DHT22;54665;51.462;6.698;2022-10-15T12:37:47;18.29;87.42
67862;DHT22;54665;51.462;6.698;2022-10-15T12:42:49;18.15;86.37
67862;DHT22;54665;51.462;6.698;2022-10-15T12:45:38;18.25;87.22
67862;DHT22;54665;51.462;6.698;2022-10-15T12:50:32;18.65;88.05
67862;DHT22;54665;51.462;6.698;2022-10-15T12:58:45;18.07;87.51
67862;DHT22;54665;51.462;6.698;2022-10-15T13:03:42;17.80;88.93
67862;DHT22;54665;51.462;6.698;2022-10-15T13:08:50;17.87;88.90
67862;DHT22;54665;51.462;6.698;2022-10-15T13:11:28;18.18;89.04
67862;DHT22;54665;51.462;6.698;2022-10-15T13:13:59;18.48;87.69
67862;DHT22;54665;51.462;6.698;2022-10-15T13:16:26;18.65;87.81
67862;DHT22;54665;51.462;6.698;2022-10-15T13:18:53;18.86;87.90
67862;DHT22;54665;51.462;6.698;2022-10-15T13:21:20;18.96;86.71
67862;DHT22;54665;51.462;6.698;2022-10-15T13:23:48;19.07;86.25
67862;DHT22;54665;51.462;6.698;2022-10-15T13:26:22;19.19;86.40
67862;DHT22;54665;51.462;6.698;2022-10-15T13:28:50;19.32;85.54
67862;DHT22;54665;51.462;6.698;2022-10-15T13:31:25;19.44;85.14
67862;DHT22;54665;51.462;6.698;2022-10-15T13:33:55;19.40;84.40
67862;DHT22;54665;51.462;6.698;2022-10-15T13:36:24;19.27;84.37
67862;DHT22;54665;51.462;6.698;2022-10-15T13:38:54;18.96;84.08
67862;DHT22;54665;51.462;6.698;2022-10-15T13:41:24;18.85;85.20
67862;DHT22;54665;51.462;6.698;2022-10-15T13:43:52;18.69;85.01
67862;DHT22;54665;51.462;6.698;2022-10-15T13:46:22;18.79;84.95
67862;DHT22;54665;51.462;6.698;2022-10-15T13:48:48;18.73;85.84
67862;DHT22;54665;51.462;6.698;2022-10-15T13:51:14;18.63;86.16
67862;DHT22;54665;51.462;6.698;2022-10-15T13:53:40;18.47;86.59
67862;DHT22;54665;51.462;6.698;2022-10-15T13:56:22;18.31;87.65
67862;DHT22;54665;51.462;6.698;2022-10-15T13:58:48;18.21;88.69
67862;DHT22;54665;51.462;6.698;2022-10-15T14:01:16;18.12;89.24
67862;DHT22;54665;51.462;6.698;2022-10-15T14:03:46;18.00;88.24
67862;DHT22;54665;51.462;6.698;2022-10-15T14:08:47;17.87;89.77
67862;DHT22;54665;51.462;6.698;2022-10-15T14:11:13;17.90;90.52
67862;DHT22;54665;51.462;6.698;2022-10-15T14:13:50;17.98;90.37
67862;DHT22;54665;51.462;6.698;2022-10-15T14:16:39;18.01;91.06
67862;DHT22;54665;51.462;6.698;2022-10-15T14:21:32;18.00;91.14
67862;DHT22;54665;51.462;6.698;2022-10-15T14:24:36;17.87;91.47
67862;DHT22;54665;51.462;6.698;2022-10-15T14:27:17;17.78;91.78
67862;DHT22;54665;51.462;6.698;2022-10-15T14:29:46;17.76;91.72
67862;DHT22;54665;51.462;6.698;2022-10-15T14:32:41;17.78;91.39
67862;DHT22;54665;51.462;6.698;2022-10-15T14:35:32;17.73;91.58
67862;DHT22;54665;51.462;6.698;2022-10-15T14:38:14;17.56;91.94
67862;DHT22;54665;51.462;6.698;2022-10-15T14:40:40;17.47;91.60
67862;DHT22;54665;51.462;6.698;2022-10-15T14:43:17;17.49;92.11
67862;DHT22;54665;51.462;6.698;2022-10-15T14:48:20;17.77;92.43
67862;DHT22;54665;51.462;6.698;2022-10-15T14:50:47;17.69;91.62
67862;DHT22;54665;51.462;6.698;2022-10-15T14:53:22;17.77;91.68
67862;DHT22;54665;51.462;6.698;2022-10-15T14:55:56;17.84;91.90
67862;DHT22;54665;51.462;6.698;2022-10-15T14:58:22;17.71;91.02
67862;DHT22;54665;51.462;6.698;2022-10-15T15:01:00;17.62;90.37
67862;DHT22;54665;51.462;6.698;2022-10-15T15:03:29;17.56;91.04
67862;DHT22;54665;51.462;6.698;2022-10-15T15:05:56;17.50;91.09
67862;DHT22;54665;51.462;6.698;2022-10-15T15:08:23;17.45;91.32
67862;DHT22;54665;51.462;6.698;2022-10-15T15:10:50;17.42;91.88
67862;DHT22;54665;51.462;6.698;2022-10-15T15:13:24;17.45;92.07
67862;DHT22;54665;51.462;6.698;2022-10-15T15:15:51;17.50;91.99
67862;DHT22;54665;51.462;6.698;2022-10-15T15:18:17;17.59;92.14
67862;DHT22;54665;51.462;6.698;2022-10-15T15:20:43;17.53;91.54
67862;DHT22;54665;51.462;6.698;2022-10-15T15:23:19;17.51;91.59
67862;DHT22;54665;51.462;6.698;2022-10-15T15:25:45;17.54;91.75
67862;DHT22;54665;51.462;6.698;2022-10-15T15:28:16;17.49;92.09
67862;DHT22;54665;51.462;6.698;2022-10-15T15:30:43;17.46;92.33
67862;DHT22;54665;51.462;6.698;2022-10-15T15:33:13;17.36;92.36
67862;DHT22;54665;51.462;6.698;2022-10-15T15:35:54;17.27;92.72
67862;DHT22;54665;51.462;6.698;2022-10-15T15:38:23;17.20;92.90
67862;DHT22;54665;51.462;6.698;2022-10-15T15:41:03;17.16;93.15
67862;DHT22;54665;51.462;6.698;2022-10-15T15:43:28;17.14;93.22
67862;DHT22;54665;51.462;6.698;2022-10-15T15:45:54;17.15;93.26
67862;DHT22;54665;51.462;6.698;2022-10-15T15:48:19;17.15;93.38
67862;DHT22;54665;51.462;6.698;2022-10-15T15:50:45;17.18;93.26
67862;DHT22;54665;51.462;6.698;2022-10-15T15:53:11;17.16;93.33
67862;DHT22;54665;51.462;6.698;2022-10-15T15:55:36;17.12;93.30
67862;DHT22;54665;51.462;6.698;2022-10-15T15:58:02;17.09;93.24
67862;DHT22;54665;51.462;6.698;2022-10-15T16:00:27;17.12;93.19
67862;DHT22;54665;51.462;6.698;2022-10-15T16:02:53;17.05;93.04
67862;DHT22;54665;51.462;6.698;2022-10-15T16:05:18;17.01;92.55
67862;DHT22;54665;51.462;6.698;2022-10-15T16:07:44;16.96;91.49
67862;DHT22;54665;51.462;6.698;2022-10-15T16:10:10;16.89;90.36
67862;DHT22;54665;51.462;6.698;2022-10-15T16:12:40;16.82;90.14
67862;DHT22;54665;51.462;6.698;2022-10-15T16:15:07;16.71;89.29
67862;DHT22;54665;51.462;6.698;2022-10-15T16:17:33;16.60;89.82
67862;DHT22;54665;51.462;6.698;2022-10-15T16:19:58;16.44;86.23
67862;DHT22;54665;51.462;6.698;2022-10-15T16:22:23;16.33;86.37
67862;DHT22;54665;51.462;6.698;2022-10-15T16:24:49;16.26;82.89
67862;DHT22;54665;51.462;6.698;2022-10-15T16:27:14;16.12;80.50
67862;DHT22;54665;51.462;6.698;2022-10-15T16:29:40;15.97;80.85
67862;DHT22;54665;51.462;6.698;2022-10-15T16:32:05;15.95;80.60
67862;DHT22;54665;51.462;6.698;2022-10-15T16:34:30;15.83;80.91
67862;DHT22;54665;51.462;6.698;2022-10-15T16:36:56;15.69;79.95
67862;DHT22;54665;51.462;6.698;2022-10-15T16:39:21;15.66;79.71
67862;DHT22;54665;51.462;6.698;2022-10-15T16:41:47;15.51;80.10
67862;DHT22;54665;51.462;6.698;2022-10-15T16:44:12;15.45;80.73
67862;DHT22;54665;51.462;6.698;2022-10-15T16:46:38;15.39;82.40
67862;DHT22;54665;51.462;6.698;2022-10-15T16:49:03;15.25;82.36
67862;DHT22;54665;51.462;6.698;2022-10-15T16:51:29;15.17;84.15
67862;DHT22;54665;51.462;6.698;2022-10-15T16:53:54;15.08;85.01
67862;DHT22;54665;51.462;6.698;2022-10-15T16:56:25;15.05;85.14
67862;DHT22;54665;51.462;6.698;2022-10-15T16:58:50;15.07;85.82
67862;DHT22;54665;51.462;6.698;2022-10-15T17:01:19;15.05;85.49
67862;DHT22;54665;51.462;6.698;2022-10-15T17:03:45;15.04;84.24
67862;DHT22;54665;51.462;6.698;2022-10-15T17:06:14;15.08;85.38
67862;DHT22;54665;51.462;6.698;2022-10-15T17:08:42;15.05;83.59
67862;DHT22;54665;51.462;6.698;2022-10-15T17:11:10;15.05;82.24
67862;DHT22;54665;51.462;6.698;2022-10-15T17:13:36;15.01;80.83